createdAt,value
2023-12-30T00:00:28.166Z,9.50
2023-12-30T00:03:15.853Z,7.80
2023-12-30T00:05:44.310Z,9.70
2023-12-30T00:08:11.987Z,8.60
2023-12-30T00:10:40.029Z,7.00
2023-12-30T00:13:07.849Z,8.00
2023-12-30T00:15:36.095Z,10.10
2023-12-30T00:18:04.634Z,6.80
2023-12-30T00:20:32.405Z,5.80
2023-12-30T00:23:00.905Z,7.00
2023-12-30T00:25:28.831Z,8.50
2023-12-30T00:27:57.628Z,8.10
2023-12-30T00:30:25.401Z,6.00
2023-12-30T00:32:53.161Z,6.70
2023-12-30T00:35:20.899Z,6.80
2023-12-30T00:37:48.611Z,5.50
2023-12-30T00:40:24.230Z,7.40
2023-12-30T00:42:54.797Z,6.90
2023-12-30T00:45:22.947Z,5.70
2023-12-30T00:47:50.856Z,7.10
2023-12-30T00:50:18.658Z,8.00
2023-12-30T00:52:46.397Z,6.30
2023-12-30T00:55:14.683Z,6.20
2023-12-30T00:57:42.348Z,6.50
2023-12-30T01:00:10.621Z,8.00
2023-12-30T01:02:38.641Z,5.50
2023-12-30T01:05:06.633Z,6.80
2023-12-30T01:07:35.671Z,8.50
2023-12-30T01:10:03.558Z,5.60
2023-12-30T01:12:31.271Z,7.20
2023-12-30T01:14:58.955Z,7.10
2023-12-30T01:17:27.519Z,8.10
2023-12-30T01:19:55.397Z,6.30
2023-12-30T01:22:23.078Z,6.60
2023-12-30T01:24:50.898Z,7.40
2023-12-30T01:27:18.663Z,7.80
2023-12-30T01:29:46.925Z,7.30
2023-12-30T01:32:14.683Z,7.30
2023-12-30T01:34:42.387Z,7.20
2023-12-30T01:37:10.216Z,6.40
2023-12-30T01:39:37.947Z,9.00
2023-12-30T01:42:05.882Z,6.00
2023-12-30T01:44:33.684Z,9.30
2023-12-30T01:47:01.444Z,6.20
2023-12-30T01:49:29.539Z,5.80
2023-12-30T01:51:57.759Z,6.60
2023-12-30T01:54:26.868Z,9.10
2023-12-30T01:56:55.090Z,6.90
2023-12-30T01:59:23.852Z,6.70
2023-12-30T02:01:51.949Z,6.50
2023-12-30T02:04:19.703Z,6.00
2023-12-30T02:06:47.592Z,6.30
2023-12-30T02:09:15.704Z,5.90
2023-12-30T02:11:44.574Z,4.90
2023-12-30T02:14:31.960Z,6.00
2023-12-30T02:17:00.278Z,6.40
2023-12-30T02:19:28.341Z,6.80
2023-12-30T02:21:56.844Z,8.80
2023-12-30T02:24:24.675Z,6.40
2023-12-30T02:26:52.418Z,6.60
2023-12-30T02:29:20.148Z,4.40
2023-12-30T02:31:48.428Z,5.70
2023-12-30T02:34:18.883Z,3.70
2023-12-30T02:36:48.429Z,6.20
2023-12-30T02:41:44.279Z,4.80
2023-12-30T02:44:12.050Z,5.00
2023-12-30T02:46:39.771Z,4.60
2023-12-30T02:49:07.509Z,6.50
2023-12-30T02:51:35.354Z,7.00
2023-12-30T02:54:03.584Z,4.40
2023-12-30T02:56:31.265Z,4.00
2023-12-30T02:59:00.976Z,6.70
2023-12-30T03:01:31.174Z,5.90
2023-12-30T03:04:01.117Z,5.70
2023-12-30T03:06:29.068Z,4.10
2023-12-30T03:08:56.923Z,4.80
2023-12-30T03:11:25.086Z,3.60
2023-12-30T03:13:53.046Z,3.50
2023-12-30T03:16:20.917Z,4.80
2023-12-30T03:18:48.733Z,3.60
2023-12-30T03:21:18.215Z,4.00
2023-12-30T03:23:45.859Z,4.30
2023-12-30T03:26:13.532Z,6.20
2023-12-30T03:28:41.291Z,2.80
2023-12-30T03:31:09.061Z,3.40
2023-12-30T03:33:37.054Z,3.30
2023-12-30T03:36:05.026Z,3.10
2023-12-30T03:38:32.662Z,3.00
2023-12-30T03:41:00.478Z,4.80
2023-12-30T03:43:28.175Z,3.10
2023-12-30T03:45:56.585Z,4.00
2023-12-30T03:48:24.352Z,2.90
2023-12-30T03:50:52.061Z,3.40
2023-12-30T03:53:19.979Z,4.30
2023-12-30T03:55:48.088Z,3.30
2023-12-30T03:58:15.993Z,4.20
2023-12-30T04:00:43.769Z,3.30
2023-12-30T04:03:11.543Z,3.90
2023-12-30T04:05:39.344Z,4.30
2023-12-30T04:08:07.168Z,3.50
2023-12-30T04:10:35.093Z,4.00
2023-12-30T04:13:03.322Z,3.40
2023-12-30T04:15:32.226Z,2.80
2023-12-30T04:17:59.934Z,3.80
2023-12-30T04:20:27.630Z,3.70
2023-12-30T04:22:56.051Z,3.00
2023-12-30T04:25:23.836Z,4.00
2023-12-30T04:27:51.575Z,3.60
2023-12-30T04:30:19.595Z,3.70
2023-12-30T04:32:47.431Z,3.20
2023-12-30T04:35:15.243Z,3.20
2023-12-30T04:37:43.045Z,3.70
2023-12-30T04:40:11.168Z,3.00
2023-12-30T04:42:38.959Z,3.80
2023-12-30T04:45:13.584Z,3.80
2023-12-30T04:47:42.167Z,3.50
2023-12-30T04:50:10.317Z,4.00
2023-12-30T04:52:38.039Z,3.90
2023-12-30T04:55:06.372Z,3.30
2023-12-30T04:57:34.100Z,3.40
2023-12-30T05:00:01.793Z,3.80
2023-12-30T05:02:29.538Z,2.30
2023-12-30T05:04:57.237Z,4.30
2023-12-30T05:07:26.275Z,3.30
2023-12-30T05:09:54.117Z,3.40
2023-12-30T05:12:21.815Z,4.10
2023-12-30T05:14:49.564Z,2.60
2023-12-30T05:17:17.226Z,3.70
2023-12-30T05:19:44.995Z,2.40
2023-12-30T05:22:12.824Z,3.00
2023-12-30T05:24:40.613Z,2.80
2023-12-30T05:27:08.335Z,4.30
2023-12-30T05:29:36.077Z,2.40
2023-12-30T05:32:05.266Z,2.60
2023-12-30T05:34:32.982Z,4.20
2023-12-30T05:37:00.725Z,3.60
2023-12-30T05:39:28.430Z,3.00
2023-12-30T05:41:56.205Z,2.90
2023-12-30T05:44:23.819Z,3.20
2023-12-30T05:46:54.524Z,4.20
2023-12-30T05:49:23.176Z,3.50
2023-12-30T05:51:51.376Z,2.90
2023-12-30T05:54:19.048Z,4.00
2023-12-30T05:56:46.702Z,3.60
2023-12-30T05:59:14.744Z,5.60
2023-12-30T06:01:46.746Z,5.70
2023-12-30T06:04:15.383Z,4.20
2023-12-30T06:06:44.105Z,2.60
2023-12-30T06:09:12.575Z,3.10
2023-12-30T06:11:40.425Z,2.50
2023-12-30T06:14:08.203Z,2.50
2023-12-30T06:16:36.256Z,3.10
2023-12-30T06:19:04.110Z,3.50
2023-12-30T06:21:31.825Z,2.80
2023-12-30T06:23:59.458Z,2.80
2023-12-30T06:26:27.110Z,3.50
2023-12-30T06:28:54.926Z,5.40
2023-12-30T06:31:22.724Z,2.70
2023-12-30T06:33:50.467Z,2.80
2023-12-30T06:36:22.697Z,4.00
2023-12-30T06:38:53.461Z,2.90
2023-12-30T06:41:21.247Z,2.30
2023-12-30T06:43:49.305Z,1.80
2023-12-30T06:46:21.168Z,1.90
2023-12-30T06:48:48.973Z,1.50
2023-12-30T06:51:16.771Z,2.30
2023-12-30T06:53:44.470Z,2.30
2023-12-30T06:56:12.281Z,1.10
2023-12-30T06:58:40.105Z,1.40
2023-12-30T07:01:07.749Z,1.60
2023-12-30T07:03:35.466Z,1.50
2023-12-30T07:06:03.301Z,1.70
2023-12-30T07:08:30.933Z,2.20
2023-12-30T07:10:58.761Z,1.60
2023-12-30T07:13:26.449Z,1.60
2023-12-30T07:15:54.175Z,1.80
2023-12-30T07:18:22.412Z,1.80
2023-12-30T07:20:50.160Z,2.60
2023-12-30T07:23:17.777Z,2.40
2023-12-30T07:25:45.437Z,2.60
2023-12-30T07:28:13.332Z,1.80
2023-12-30T07:30:41.084Z,2.20
2023-12-30T07:33:09.165Z,1.40
2023-12-30T07:35:37.013Z,1.70
2023-12-30T07:38:04.770Z,2.00
2023-12-30T07:40:32.551Z,1.90
2023-12-30T07:43:00.588Z,1.80
2023-12-30T07:45:28.397Z,1.50
2023-12-30T07:47:56.662Z,1.40
2023-12-30T07:50:24.813Z,1.00
2023-12-30T07:52:52.507Z,1.10
2023-12-30T07:55:20.331Z,2.40
2023-12-30T07:57:48.048Z,1.40
2023-12-30T08:00:16.111Z,1.40
2023-12-30T08:02:45.511Z,1.10
2023-12-30T08:05:13.493Z,0.90
2023-12-30T08:07:41.361Z,0.70
2023-12-30T08:10:09.273Z,1.40
2023-12-30T08:12:37.963Z,0.80
2023-12-30T08:15:06.394Z,0.90
2023-12-30T08:17:34.259Z,4.20
2023-12-30T08:20:02.618Z,1.10
2023-12-30T08:22:30.927Z,1.60
2023-12-30T08:24:59.622Z,2.00
2023-12-30T08:27:27.874Z,1.90
2023-12-30T08:29:56.136Z,2.30
2023-12-30T08:32:24.045Z,1.20
2023-12-30T08:34:52.311Z,1.20
2023-12-30T08:37:20.260Z,1.50
2023-12-30T08:39:48.544Z,1.30
2023-12-30T08:42:16.398Z,1.60
2023-12-30T08:44:46.924Z,1.40
2023-12-30T08:47:16.570Z,2.20
2023-12-30T08:49:44.515Z,2.50
2023-12-30T08:52:12.290Z,1.10
2023-12-30T08:54:41.583Z,1.70
2023-12-30T08:57:09.290Z,1.10
2023-12-30T08:59:37.034Z,1.80
2023-12-30T09:02:04.992Z,0.90
2023-12-30T09:04:32.898Z,2.40
2023-12-30T09:07:00.668Z,2.20
2023-12-30T09:09:28.388Z,3.40
2023-12-30T09:11:56.037Z,1.60
2023-12-30T09:14:25.173Z,2.80
2023-12-30T09:16:53.233Z,2.60
2023-12-30T09:19:21.093Z,1.80
2023-12-30T09:21:48.820Z,1.10
2023-12-30T09:24:16.572Z,3.40
2023-12-30T09:26:44.256Z,3.00
2023-12-30T09:29:11.943Z,2.90
2023-12-30T09:31:39.607Z,0.90
2023-12-30T09:34:08.169Z,2.50
2023-12-30T09:36:35.969Z,0.90
2023-12-30T09:39:05.224Z,1.10
2023-12-30T09:41:33.202Z,1.60
2023-12-30T09:44:01.993Z,1.50
2023-12-30T09:46:30.444Z,1.90
2023-12-30T09:48:59.637Z,2.90
2023-12-30T09:51:28.270Z,1.70
2023-12-30T09:53:56.418Z,0.90
2023-12-30T09:56:25.730Z,1.40
2023-12-30T09:58:56.804Z,3.60
2023-12-30T10:01:25.736Z,1.90
2023-12-30T10:03:53.589Z,1.10
2023-12-30T10:06:22.943Z,1.70
2023-12-30T10:08:50.901Z,1.30
2023-12-30T10:11:18.748Z,1.10
2023-12-30T10:13:46.560Z,0.90
2023-12-30T10:16:16.342Z,1.40
2023-12-30T10:18:44.274Z,1.40
2023-12-30T10:21:12.124Z,1.30
2023-12-30T10:23:39.871Z,2.00
2023-12-30T10:26:07.584Z,1.40
2023-12-30T10:28:36.056Z,1.60
2023-12-30T10:31:05.485Z,2.20
2023-12-30T10:33:34.643Z,1.80
2023-12-30T10:36:06.256Z,1.60
2023-12-30T10:38:35.971Z,2.10
2023-12-30T10:41:03.796Z,2.00
2023-12-30T10:43:31.473Z,1.80
2023-12-30T10:46:04.399Z,1.10
2023-12-30T10:48:34.364Z,3.30
2023-12-30T10:51:03.154Z,1.00
2023-12-30T10:53:41.056Z,2.20
2023-12-30T10:56:10.941Z,1.30
2023-12-30T10:58:41.435Z,3.30
2023-12-30T11:01:10.746Z,1.40
2023-12-30T11:06:25.008Z,1.50
2023-12-30T11:08:54.189Z,2.10
2023-12-30T11:11:23.980Z,1.50
2023-12-30T11:13:58.216Z,1.40
2023-12-30T11:16:26.837Z,2.00
2023-12-30T11:18:57.428Z,2.60
2023-12-30T11:21:42.093Z,2.20
2023-12-30T11:24:11.993Z,3.50
2023-12-30T11:26:43.722Z,2.30
2023-12-30T11:29:15.900Z,3.00
2023-12-30T11:31:45.606Z,2.70
2023-12-30T11:34:17.837Z,2.50
2023-12-30T11:36:48.072Z,1.70
2023-12-30T11:39:24.619Z,1.80
2023-12-30T11:41:55.260Z,1.00
2023-12-30T11:44:23.212Z,1.50
2023-12-30T11:46:51.280Z,0.30
2023-12-30T11:49:24.182Z,0.70
2023-12-30T11:52:01.357Z,1.00
2023-12-30T11:54:29.136Z,0.80
2023-12-30T11:56:56.801Z,1.40
2023-12-30T11:59:24.451Z,3.00
2023-12-30T12:01:52.769Z,0.90
2023-12-30T12:04:20.536Z,1.60
2023-12-30T12:06:48.295Z,1.40
2023-12-30T12:09:15.923Z,2.30
2023-12-30T12:11:43.554Z,1.30
2023-12-30T12:14:11.561Z,2.00
2023-12-30T12:16:40.589Z,1.70
2023-12-30T12:19:08.685Z,2.40
2023-12-30T12:21:37.530Z,1.90
2023-12-30T12:24:06.479Z,1.80
2023-12-30T12:26:34.135Z,1.50
2023-12-30T12:29:02.063Z,1.70
2023-12-30T12:31:33.130Z,1.80
2023-12-30T12:34:20.212Z,3.00
2023-12-30T12:36:48.828Z,2.40
2023-12-30T12:39:18.105Z,1.60
2023-12-30T12:41:46.505Z,2.80
2023-12-30T12:44:14.281Z,3.10
2023-12-30T12:46:42.612Z,3.40
2023-12-30T12:49:10.618Z,2.40
2023-12-30T12:51:40.397Z,2.50
2023-12-30T12:54:08.321Z,2.80
2023-12-30T12:56:36.483Z,4.20
2023-12-30T12:59:04.154Z,2.50
2023-12-30T13:01:32.159Z,3.30
2023-12-30T13:04:00.103Z,2.40
2023-12-30T13:06:28.408Z,2.30
2023-12-30T13:08:57.836Z,2.70
2023-12-30T13:11:29.580Z,4.10
2023-12-30T13:13:57.623Z,4.20
2023-12-30T13:16:25.555Z,3.90
2023-12-30T13:18:54.213Z,2.80
2023-12-30T13:21:21.904Z,3.30
2023-12-30T13:23:51.415Z,4.60
2023-12-30T13:26:22.180Z,3.20
2023-12-30T13:28:50.034Z,2.60
2023-12-30T13:31:23.173Z,3.90
2023-12-30T13:33:54.711Z,3.80
2023-12-30T13:36:22.514Z,3.60
2023-12-30T13:39:00.321Z,2.30
2023-12-30T13:41:28.319Z,2.30
2023-12-30T13:43:56.068Z,2.40
2023-12-30T13:46:33.098Z,4.80
2023-12-30T13:49:10.722Z,3.00
2023-12-30T13:51:42.953Z,2.90
2023-12-30T13:54:11.437Z,4.40
2023-12-30T13:56:43.475Z,2.80
2023-12-30T13:59:13.462Z,2.50
2023-12-30T14:01:41.428Z,3.30
2023-12-30T14:04:09.625Z,2.80
2023-12-30T14:06:40.344Z,3.00
2023-12-30T14:09:38.706Z,3.10
2023-12-30T14:12:08.153Z,2.60
2023-12-30T14:14:42.777Z,2.80
2023-12-30T14:17:10.985Z,3.50
2023-12-30T14:19:39.658Z,3.40
2023-12-30T14:22:09.054Z,4.60
2023-12-30T14:24:36.910Z,3.80
2023-12-30T14:27:04.983Z,3.30
2023-12-30T14:29:32.803Z,3.80
2023-12-30T14:32:00.556Z,3.80
2023-12-30T14:34:28.326Z,3.80
2023-12-30T14:36:56.177Z,3.70
2023-12-30T14:39:23.889Z,6.00
2023-12-30T14:41:51.630Z,5.90
2023-12-30T14:44:19.292Z,5.50
2023-12-30T14:46:47.418Z,6.50
2023-12-30T14:49:15.591Z,8.30
2023-12-30T14:51:43.329Z,6.30
2023-12-30T14:54:11.153Z,8.30
2023-12-30T14:56:38.829Z,7.80
2023-12-30T14:59:07.046Z,8.50
2023-12-30T15:01:34.830Z,9.20
2023-12-30T15:04:04.558Z,6.10
2023-12-30T15:06:32.448Z,6.10
2023-12-30T15:09:00.233Z,5.60
2023-12-30T15:11:30.633Z,5.80
2023-12-30T15:13:59.193Z,5.00
2023-12-30T15:16:26.927Z,5.20
2023-12-30T15:18:55.550Z,4.30
2023-12-30T15:21:23.445Z,4.60
2023-12-30T15:23:51.154Z,5.60
2023-12-30T15:26:18.921Z,4.80
2023-12-30T15:28:46.684Z,4.70
2023-12-30T15:31:14.701Z,4.10
2023-12-30T15:33:42.668Z,5.20
2023-12-30T15:36:11.216Z,5.50
2023-12-30T15:38:39.518Z,5.00
2023-12-30T15:41:07.267Z,6.10
2023-12-30T15:43:35.047Z,4.40
2023-12-30T15:46:03.876Z,5.30
2023-12-30T15:48:31.777Z,6.90
2023-12-30T15:50:59.659Z,3.40
2023-12-30T15:53:27.532Z,7.60
2023-12-30T15:55:55.955Z,5.50
2023-12-30T15:58:23.734Z,6.70
2023-12-30T16:00:52.560Z,5.90
2023-12-30T16:03:21.068Z,6.60
2023-12-30T16:05:49.379Z,5.50
2023-12-30T16:08:17.602Z,6.50
2023-12-30T16:10:46.165Z,7.40
2023-12-30T16:13:14.606Z,4.90
2023-12-30T16:15:43.941Z,7.00
2023-12-30T16:18:11.725Z,4.80
2023-12-30T16:20:39.587Z,4.20
2023-12-30T16:23:08.379Z,4.00
2023-12-30T16:25:37.396Z,5.40
2023-12-30T16:28:05.539Z,6.60
2023-12-30T16:30:33.333Z,4.20
2023-12-30T16:33:01.705Z,5.60
2023-12-30T16:35:29.801Z,9.10
2023-12-30T16:37:57.523Z,5.20
2023-12-30T16:40:28.320Z,6.60
2023-12-30T16:42:56.090Z,4.40
2023-12-30T16:45:23.719Z,7.20
2023-12-30T16:47:51.414Z,3.20
2023-12-30T16:50:19.931Z,3.90
2023-12-30T16:52:50.343Z,5.10
2023-12-30T16:55:18.107Z,4.40
2023-12-30T16:57:47.003Z,5.00
2023-12-30T17:00:16.708Z,5.90
2023-12-30T17:05:12.157Z,7.70
2023-12-30T17:07:39.984Z,3.80
2023-12-30T17:10:08.474Z,3.00
2023-12-30T17:12:36.151Z,3.70
2023-12-30T17:15:04.745Z,4.90
2023-12-30T17:17:33.050Z,5.50
2023-12-30T17:20:00.762Z,4.60
2023-12-30T17:22:29.571Z,3.40
2023-12-30T17:24:57.286Z,3.40
2023-12-30T17:27:26.780Z,3.90
2023-12-30T17:29:55.300Z,4.60
2023-12-30T17:32:23.018Z,5.20
2023-12-30T17:34:50.772Z,7.20
2023-12-30T17:37:18.739Z,8.30
2023-12-30T17:39:46.417Z,7.30
2023-12-30T17:42:14.375Z,9.90
2023-12-30T17:44:42.282Z,6.50
2023-12-30T17:47:11.604Z,4.40
2023-12-30T17:49:39.334Z,5.10
2023-12-30T17:52:07.223Z,5.20
2023-12-30T17:54:35.276Z,4.30
2023-12-30T17:57:04.020Z,5.50
2023-12-30T17:59:31.688Z,5.30
2023-12-30T18:02:00.453Z,5.20
2023-12-30T18:04:28.226Z,4.90
2023-12-30T18:06:56.045Z,6.20
2023-12-30T18:09:23.732Z,7.00
2023-12-30T18:11:51.461Z,2.90
2023-12-30T18:14:23.145Z,6.00
2023-12-30T18:16:51.012Z,6.10
2023-12-30T18:19:19.267Z,6.30
2023-12-30T18:21:47.047Z,6.30
2023-12-30T18:24:14.996Z,3.70
2023-12-30T18:26:43.308Z,4.30
2023-12-30T18:29:10.968Z,3.40
2023-12-30T18:31:38.712Z,6.90
2023-12-30T18:34:06.461Z,7.70
2023-12-30T18:36:34.185Z,4.60
2023-12-30T18:39:01.885Z,6.60
2023-12-30T18:41:29.780Z,5.80
2023-12-30T18:43:57.451Z,4.90
2023-12-30T18:46:25.282Z,6.00
2023-12-30T18:48:53.110Z,4.50
2023-12-30T18:51:20.760Z,8.70
2023-12-30T18:53:48.474Z,4.50
2023-12-30T18:56:16.188Z,4.50
2023-12-30T18:58:46.209Z,6.50
2023-12-30T19:01:14.435Z,4.00
2023-12-30T19:03:42.190Z,9.50
2023-12-30T19:06:10.075Z,7.00
2023-12-30T19:08:39.425Z,5.10
2023-12-30T19:11:07.284Z,8.00
2023-12-30T19:13:35.454Z,5.00
2023-12-30T19:16:03.678Z,5.30
2023-12-30T19:18:31.495Z,6.50
2023-12-30T19:20:59.524Z,5.90
2023-12-30T19:23:27.463Z,7.20
2023-12-30T19:25:55.139Z,5.90
2023-12-30T19:28:22.948Z,4.10
2023-12-30T19:30:51.225Z,5.90
2023-12-30T19:33:19.403Z,5.30
2023-12-30T19:35:47.676Z,6.10
2023-12-30T19:38:17.339Z,6.00
2023-12-30T19:40:47.032Z,3.80
2023-12-30T19:43:15.542Z,5.00
2023-12-30T19:45:43.638Z,4.90
2023-12-30T19:48:11.577Z,4.80
2023-12-30T19:50:39.506Z,4.20
2023-12-30T19:53:07.160Z,4.00
2023-12-30T19:55:34.859Z,7.10
2023-12-30T19:58:02.799Z,7.00
2023-12-30T20:00:30.537Z,4.10
2023-12-30T20:02:58.348Z,6.30
2023-12-30T20:05:26.130Z,6.20
2023-12-30T20:07:54.017Z,4.50
2023-12-30T20:10:21.903Z,8.80
2023-12-30T20:12:49.709Z,4.70
2023-12-30T20:15:18.070Z,6.30
2023-12-30T20:17:46.430Z,4.40
2023-12-30T20:20:14.220Z,5.10
2023-12-30T20:22:42.096Z,4.70
2023-12-30T20:25:10.225Z,5.30
2023-12-30T20:27:37.893Z,4.40
2023-12-30T20:30:06.340Z,6.30
2023-12-30T20:32:35.920Z,5.60
2023-12-30T20:35:04.497Z,5.50
2023-12-30T20:37:32.232Z,3.90
2023-12-30T20:40:00.010Z,8.80
2023-12-30T20:42:30.285Z,4.30
2023-12-30T20:44:58.017Z,5.20
2023-12-30T20:47:25.765Z,7.10
2023-12-30T20:49:53.568Z,5.60
2023-12-30T20:52:22.304Z,4.30
2023-12-30T20:54:50.149Z,7.00
2023-12-30T20:57:17.811Z,3.50
2023-12-30T20:59:45.539Z,6.00
2023-12-30T21:02:16.299Z,6.00
2023-12-30T21:04:44.432Z,6.40
2023-12-30T21:07:12.215Z,5.60
2023-12-30T21:09:39.979Z,7.30
2023-12-30T21:12:08.131Z,5.30
2023-12-30T21:14:36.657Z,6.40
2023-12-30T21:17:05.300Z,7.10
2023-12-30T21:19:33.541Z,6.80
2023-12-30T21:22:02.235Z,4.60
2023-12-30T21:24:30.062Z,7.80
2023-12-30T21:26:57.953Z,4.80
2023-12-30T21:29:25.635Z,5.90
2023-12-30T21:31:53.401Z,4.70
2023-12-30T21:34:21.345Z,4.30
2023-12-30T21:36:49.135Z,4.80
2023-12-30T21:39:17.708Z,4.20
2023-12-30T21:41:45.513Z,4.80
2023-12-30T21:44:13.180Z,7.00
2023-12-30T21:46:45.255Z,6.80
2023-12-30T21:49:16.347Z,4.20
2023-12-30T21:51:45.088Z,7.00
2023-12-30T21:54:14.075Z,5.90
2023-12-30T21:56:42.514Z,5.50
2023-12-30T21:59:10.543Z,5.60
2023-12-30T22:01:38.737Z,5.30
2023-12-30T22:04:06.719Z,5.70
2023-12-30T22:06:34.477Z,4.40
2023-12-30T22:09:02.687Z,5.30
2023-12-30T22:11:30.831Z,7.50
2023-12-30T22:13:58.736Z,6.60
2023-12-30T22:16:26.636Z,4.30
2023-12-30T22:18:54.444Z,6.20
2023-12-30T22:21:22.536Z,7.10
2023-12-30T22:23:50.248Z,5.60
2023-12-30T22:26:18.947Z,5.90
2023-12-30T22:28:46.829Z,7.30
2023-12-30T22:31:14.748Z,5.50
2023-12-30T22:33:43.258Z,5.30
2023-12-30T22:36:11.096Z,8.00
2023-12-30T22:38:39.070Z,5.90
2023-12-30T22:41:06.814Z,6.90
2023-12-30T22:43:34.936Z,8.20
2023-12-30T22:46:03.146Z,6.30
2023-12-30T22:48:30.878Z,6.90
2023-12-30T22:50:58.645Z,4.60
2023-12-30T22:53:26.298Z,6.20
2023-12-30T22:55:54.060Z,9.00
2023-12-30T22:58:21.827Z,6.90
2023-12-30T23:00:52.187Z,5.20
2023-12-30T23:03:20.171Z,7.70
2023-12-30T23:05:48.099Z,4.50
2023-12-30T23:08:15.884Z,7.90
2023-12-30T23:10:43.728Z,6.30
2023-12-30T23:13:11.483Z,5.10
2023-12-30T23:15:39.136Z,6.60
2023-12-30T23:18:06.953Z,8.80
2023-12-30T23:20:34.599Z,7.10
2023-12-30T23:23:02.756Z,7.20
2023-12-30T23:25:30.725Z,7.90
2023-12-30T23:27:58.397Z,7.80
2023-12-30T23:30:26.108Z,7.50
2023-12-30T23:32:53.925Z,5.70
2023-12-30T23:35:21.659Z,9.70
2023-12-30T23:37:49.508Z,7.30
2023-12-30T23:40:17.307Z,9.30
2023-12-30T23:42:45.028Z,9.20
2023-12-30T23:45:12.909Z,7.90
2023-12-30T23:47:40.610Z,9.10
2023-12-30T23:50:09.040Z,10.40
2023-12-30T23:52:36.735Z,8.30
2023-12-30T23:55:04.813Z,8.70
2023-12-30T23:57:34.689Z,6.70
